Time;durP1;ratioP1;P1;durP2;ratioP2;P2;SDS_P1;SDS_P2;PMS_P1;PMS_P2;Temp;Humidity;BMP_temperature;BMP_pressure;BME280_temperature;BME280_humidity;BME280_pressure;Samples;Min_cycle;Max_cycle;Signal;HPM_P1;HPM_P2
2023/05/24 04:23:15;;;;;;;18.73;17.02;;;15.70;99.90;;;;;;4579597;19;20010;-25
2023/05/24 04:24:48;;;;;;;18.52;16.73;;;15.70;99.90;;;;;;4587864;19;20010;-26
2023/05/24 04:26:21;;;;;;;19.08;17.27;;;15.80;99.90;;;;;;4589020;19;20091;-29
2023/05/24 04:27:52;;;;;;;18.58;16.77;;;15.70;99.90;;;;;;4589357;19;20015;-24
2023/05/24 04:29:25;;;;;;;18.48;16.67;;;15.80;99.90;;;;;;4590599;19;19998;-24
2023/05/24 04:30:57;;;;;;;18.02;16.23;;;15.80;99.90;;;;;;4591983;19;20070;-23
2023/05/24 04:32:29;;;;;;;18.90;17.02;;;15.70;99.90;;;;;;4592361;19;20475;-23
2023/05/24 04:34:00;;;;;;;18.02;16.33;;;15.80;99.90;;;;;;4593020;19;20029;-29
2023/05/24 04:35:32;;;;;;;19.20;17.05;;;15.80;99.90;;;;;;4593774;19;20007;-27
2023/05/24 04:37:03;;;;;;;20.27;18.38;;;15.80;99.90;;;;;;4593514;19;20078;-26
2023/05/24 04:38:37;;;;;;;;;;;15.80;99.90;;;;;;4594548;19;20014;-24
2023/05/24 04:40:09;;;;;;;18.70;16.98;;;15.80;99.90;;;;;;4593347;19;19929;-26
2023/05/24 04:41:41;;;;;;;21.45;19.25;;;15.80;99.90;;;;;;4591905;19;20014;-23
2023/05/24 04:43:13;;;;;;;20.48;18.48;;;15.80;99.90;;;;;;4592836;19;20482;-24
2023/05/24 04:44:44;;;;;;;20.73;18.70;;;15.80;99.90;;;;;;4590791;19;20378;-24
2023/05/24 04:46:15;;;;;;;19.58;17.73;;;15.80;99.90;;;;;;4593281;19;20009;-25
2023/05/24 04:47:47;;;;;;;20.65;18.75;;;15.80;99.90;;;;;;4593739;19;20013;-25
2023/05/24 04:49:18;;;;;;;20.17;18.17;;;15.80;99.90;;;;;;4591982;19;20034;-29
2023/05/24 04:50:57;;;;;;;18.92;17.10;;;15.80;99.90;;;;;;4590992;19;20022;-24
2023/05/24 04:52:29;;;;;;;19.60;17.60;;;15.90;99.90;;;;;;4593670;19;20022;-24
2023/05/24 04:54:02;;;;;;;18.70;17.00;;;15.80;99.90;;;;;;4594694;19;20007;-29
2023/05/24 04:55:34;;;;;;;19.52;17.58;;;15.90;99.90;;;;;;4537259;19;20835;-24
2023/05/24 04:57:06;;;;;;;19.10;17.30;;;15.90;99.90;;;;;;4548093;19;20038;-24
2023/05/24 04:58:37;;;;;;;18.83;17.00;;;15.90;99.90;;;;;;4593019;19;20093;-29
2023/05/24 05:00:09;;;;;;;19.38;17.48;;;15.90;99.90;;;;;;4593305;19;20021;-24
2023/05/24 05:01:41;;;;;;;17.33;15.65;;;16.00;99.90;;;;;;4590737;19;20015;-29
2023/05/24 05:03:12;;;;;;;17.90;16.20;;;16.00;99.90;;;;;;4591941;19;20011;-23
2023/05/24 05:04:43;;;;;;;17.63;15.93;;;16.00;99.90;;;;;;4591432;19;20027;-25
2023/05/24 05:06:15;;;;;;;20.05;16.70;;;16.00;99.90;;;;;;4592748;19;20475;-23
2023/05/24 05:07:46;;;;;;;17.33;15.52;;;16.10;99.90;;;;;;4592963;19;20023;-24
2023/05/24 05:09:17;;;;;;;16.10;14.52;;;16.10;99.90;;;;;;4591157;19;20051;-25
2023/05/24 05:10:49;;;;;;;17.70;15.93;;;16.10;99.90;;;;;;4593471;19;20018;-28
2023/05/24 05:12:20;;;;;;;17.48;15.73;;;16.10;99.90;;;;;;4590702;19;20519;-23
2023/05/24 05:13:52;;;;;;;16.90;15.20;;;16.20;99.90;;;;;;4593073;19;20044;-23
2023/05/24 05:15:24;;;;;;;16.27;14.57;;;16.20;99.90;;;;;;4593519;19;20427;-26
2023/05/24 05:16:55;;;;;;;16.55;14.85;;;16.20;99.90;;;;;;4593020;19;20042;-23
2023/05/24 05:18:27;;;;;;;14.88;13.48;;;16.30;99.90;;;;;;4591844;19;20010;-25
2023/05/24 05:19:58;;;;;;;15.73;14.23;;;16.30;99.90;;;;;;4592130;19;20015;-24
2023/05/24 05:21:44;;;;;;;16.73;15.02;;;16.30;99.90;;;;;;4589859;19;20373;-26
2023/05/24 05:23:15;;;;;;;16.27;14.68;;;16.30;99.90;;;;;;4592394;19;20018;-21
2023/05/24 05:24:47;;;;;;;15.63;14.13;;;16.40;99.90;;;;;;4591132;19;20535;-29
2023/05/24 05:26:18;;;;;;;16.60;14.98;;;16.30;99.90;;;;;;4590795;19;20026;-25
2023/05/24 05:27:49;;;;;;;15.00;13.60;;;16.40;99.90;;;;;;4592748;19;20011;-22
2023/05/24 05:29:21;;;;;;;15.40;13.90;;;16.40;99.90;;;;;;4591938;19;20022;-26
2023/05/24 05:30:52;;;;;;;15.63;14.13;;;16.40;99.90;;;;;;4591107;19;20026;-24
2023/05/24 05:32:24;;;;;;;16.98;15.38;;;16.40;99.90;;;;;;4588195;19;20030;-26
2023/05/24 05:33:56;;;;;;;15.82;14.25;;;16.40;99.90;;;;;;4591765;19;20022;-23
2023/05/24 05:35:27;;;;;;;15.63;14.02;;;16.50;99.90;;;;;;4592822;19;20389;-26
2023/05/24 05:36:58;;;;;;;15.18;13.68;;;16.50;99.90;;;;;;4591721;19;20366;-28
2023/05/24 05:38:30;;;;;;;16.17;14.60;;;16.50;99.90;;;;;;4592273;19;20072;-24
2023/05/24 05:40:02;;;;;;;15.43;13.93;;;16.50;99.90;;;;;;4591644;19;20032;-25
2023/05/24 05:41:37;;;;;;;15.45;13.95;;;16.50;99.90;;;;;;4586561;19;20483;-25
2023/05/24 05:43:09;;;;;;;16.42;14.63;;;16.50;99.90;;;;;;4591591;19;20014;-25
2023/05/24 05:44:40;;;;;;;16.30;14.70;;;16.50;99.90;;;;;;4589808;19;20022;-23
2023/05/24 05:46:14;;;;;;;16.20;14.70;;;16.50;99.90;;;;;;4593475;19;20010;-24
2023/05/24 05:48:00;;;;;;;16.42;14.90;;;16.50;99.90;;;;;;4592017;19;20369;-28
2023/05/24 05:49:35;;;;;;;16.42;14.88;;;16.50;99.90;;;;;;4590856;19;20627;-24
2023/05/24 05:51:06;;;;;;;16.27;14.68;;;16.50;99.90;;;;;;4590827;19;20370;-29
2023/05/24 05:52:37;;;;;;;16.15;14.45;;;16.60;99.90;;;;;;4592307;19;20019;-25
2023/05/24 05:54:13;;;;;;;14.68;13.30;;;16.50;99.90;;;;;;4592247;19;20507;-23
2023/05/24 05:55:44;;;;;;;15.85;14.25;;;16.60;99.90;;;;;;4590484;19;20076;-26
2023/05/24 05:57:18;;;;;;;15.45;13.95;;;16.60;99.90;;;;;;4592392;19;20027;-24
2023/05/24 05:58:49;;;;;;;14.00;12.63;;;16.60;99.90;;;;;;4591286;19;20353;-28
2023/05/24 06:00:22;;;;;;;14.93;13.43;;;16.50;99.90;;;;;;4590565;19;20019;-24
2023/05/24 06:01:53;;;;;;;15.50;14.00;;;16.60;99.90;;;;;;4588842;19;20383;-28
2023/05/24 06:03:24;;;;;;;15.13;13.65;;;16.50;99.90;;;;;;4591878;19;20370;-24
2023/05/24 06:04:55;;;;;;;15.70;14.07;;;16.60;99.90;;;;;;4581286;19;20017;-24
2023/05/24 06:06:27;;;;;;;15.75;14.25;;;16.60;99.90;;;;;;4587464;19;20014;-26
2023/05/24 06:07:58;;;;;;;15.35;13.77;;;16.50;99.90;;;;;;4589931;19;20018;-24
2023/05/24 06:09:29;;;;;;;15.98;14.38;;;16.50;99.90;;;;;;4588693;19;20018;-25
2023/05/24 06:11:01;;;;;;;16.10;14.60;;;16.60;99.90;;;;;;4589081;19;20022;-25
2023/05/24 06:12:33;;;;;;;15.38;13.88;;;16.60;99.90;;;;;;4588270;19;20053;-24
2023/05/24 06:14:06;;;;;;;16.27;14.73;;;16.60;99.90;;;;;;4590298;19;20031;-23
2023/05/24 06:15:38;;;;;;;16.88;15.02;;;16.60;99.90;;;;;;4589312;19;20014;-24
2023/05/24 06:17:10;;;;;;;;;;;16.60;99.90;;;;;;4588823;19;20013;-23
2023/05/24 06:18:41;;;;;;;15.95;14.40;;;16.60;99.90;;;;;;4589514;19;19923;-24
2023/05/24 06:20:14;;;;;;;18.70;14.18;;;16.60;99.90;;;;;;4589327;19;20022;-25
2023/05/24 06:21:48;;;;;;;16.70;14.95;;;16.60;99.90;;;;;;4590028;19;20097;-23
2023/05/24 06:23:19;;;;;;;16.63;14.75;;;16.60;99.90;;;;;;4587397;19;20022;-24
2023/05/24 06:24:51;;;;;;;16.92;15.32;;;16.60;99.90;;;;;;4587931;19;20109;-25
2023/05/24 06:26:22;;;;;;;16.52;14.98;;;16.60;99.90;;;;;;4587987;19;20018;-24
2023/05/24 06:27:54;;;;;;;;;;;16.60;99.90;;;;;;4589855;19;20007;-26
2023/05/24 06:29:25;;;;;;;16.60;14.93;;;16.60;99.90;;;;;;4588352;19;19918;-29
2023/05/24 06:30:58;;;;;;;16.73;15.23;;;16.60;99.90;;;;;;4589239;19;20495;-24
2023/05/24 06:32:29;;;;;;;16.48;14.98;;;16.60;99.90;;;;;;4589460;19;20013;-24
2023/05/24 06:34:00;;;;;;;16.65;15.05;;;16.60;99.90;;;;;;4588907;19;20085;-29
2023/05/24 06:35:32;;;;;;;19.77;17.67;;;16.60;99.90;;;;;;4588865;19;20011;-25
2023/05/24 06:37:04;;;;;;;17.75;15.95;;;16.60;99.90;;;;;;4588841;19;20022;-25
2023/05/24 06:38:35;;;;;;;19.05;17.08;;;16.60;99.90;;;;;;4588955;19;20439;-25
2023/05/24 06:40:08;;;;;;;17.85;16.23;;;16.60;99.90;;;;;;4587624;19;20019;-27
2023/05/24 06:41:42;;;;;;;16.02;14.52;;;16.60;99.90;;;;;;4587811;19;20018;-25
2023/05/24 06:43:13;;;;;;;16.95;15.30;;;16.60;99.90;;;;;;4590346;19;20345;-27
2023/05/24 06:44:44;;;;;;;;;;;16.60;99.90;;;;;;4591638;19;20003;-28
2023/05/24 06:46:18;;;;;;;17.38;15.70;;;16.60;99.90;;;;;;4590841;19;19907;-24
2023/05/24 06:47:50;;;;;;;18.17;16.48;;;16.60;99.90;;;;;;4589814;19;20365;-25
2023/05/24 06:49:23;;;;;;;18.27;16.55;;;16.60;99.90;;;;;;4591017;19;20010;-24
2023/05/24 06:50:56;;;;;;;20.33;18.35;;;16.60;99.90;;;;;;4591749;19;20337;-26
2023/05/24 06:52:28;;;;;;;18.92;17.02;;;16.60;99.90;;;;;;4590292;19;20508;-24
2023/05/24 06:54:00;;;;;;;19.92;17.95;;;16.60;99.90;;;;;;4587814;19;20082;-25
2023/05/24 06:55:31;;;;;;;19.23;17.35;;;16.60;99.90;;;;;;4590562;19;20030;-27
2023/05/24 06:57:04;;;;;;;21.05;19.05;;;16.60;99.90;;;;;;4591159;19;19999;-24
2023/05/24 06:58:36;;;;;;;20.58;18.67;;;16.60;99.90;;;;;;4590684;19;20050;-23
2023/05/24 07:00:11;;;;;;;20.08;18.15;;;16.60;99.90;;;;;;4590645;19;20014;-27
2023/05/24 07:01:42;;;;;;;21.05;18.95;;;16.60;99.90;;;;;;4591364;19;20444;-24
2023/05/24 07:03:16;;;;;;;20.58;18.70;;;16.60;99.90;;;;;;4591507;19;19994;-25
2023/05/24 07:04:47;;;;;;;20.17;18.25;;;16.60;99.90;;;;;;4588318;19;20027;-23
2023/05/24 07:06:20;;;;;;;22.05;19.88;;;16.60;99.90;;;;;;4589401;19;20021;-26
2023/05/24 07:07:53;;;;;;;21.15;19.08;;;16.60;99.90;;;;;;4590304;19;20014;-24
2023/05/24 07:09:24;;;;;;;19.90;17.98;;;16.60;99.90;;;;;;4591492;19;20003;-25
2023/05/24 07:10:56;;;;;;;20.48;18.58;;;16.60;99.90;;;;;;4590536;19;20035;-25
2023/05/24 07:12:31;;;;;;;20.27;18.38;;;16.60;99.90;;;;;;4590699;19;20014;-27
2023/05/24 07:14:04;;;;;;;19.48;17.70;;;16.60;99.90;;;;;;4590488;19;20013;-25
2023/05/24 07:15:35;;;;;;;21.02;19.00;;;16.60;99.90;;;;;;4590729;19;20009;-24
2023/05/24 07:17:08;;;;;;;20.67;18.77;;;16.60;99.90;;;;;;4589917;19;20350;-23
2023/05/24 07:18:41;;;;;;;20.40;18.40;;;16.60;99.90;;;;;;4589289;19;20022;-25
2023/05/24 07:20:12;;;;;;;20.80;18.75;;;16.60;99.90;;;;;;4589343;19;20007;-23
2023/05/24 07:21:47;;;;;;;19.85;17.73;;;16.60;99.90;;;;;;4587651;19;20611;-27
2023/05/24 07:23:18;;;;;;;21.45;19.30;;;16.60;99.90;;;;;;4588269;19;20035;-24
2023/05/24 07:24:50;;;;;;;20.45;18.38;;;16.60;99.90;;;;;;4587601;19;20025;-25
2023/05/24 07:26:23;;;;;;;20.38;18.38;;;16.60;99.90;;;;;;4589751;19;20002;-27
2023/05/24 07:27:54;;;;;;;20.55;18.65;;;16.60;99.90;;;;;;4588433;19;20075;-25
2023/05/24 07:29:25;;;;;;;20.15;18.25;;;16.60;99.90;;;;;;4589629;19;20024;-24
2023/05/24 07:30:57;;;;;;;20.88;18.83;;;16.60;99.90;;;;;;4588956;19;20409;-29
2023/05/24 07:32:28;;;;;;;20.95;18.90;;;16.60;99.90;;;;;;4587885;19;20014;-25
2023/05/24 07:33:59;;;;;;;21.90;19.90;;;16.60;99.90;;;;;;4588728;19;20464;-25
2023/05/24 07:35:31;;;;;;;21.30;19.30;;;16.60;99.90;;;;;;4590154;19;20495;-26
2023/05/24 07:37:04;;;;;;;20.90;18.88;;;16.60;99.90;;;;;;4590319;19;20010;-26
2023/05/24 07:38:35;;;;;;;21.15;19.25;;;16.60;99.90;;;;;;4588790;19;20374;-28
2023/05/24 07:40:11;;;;;;;21.25;19.05;;;16.60;99.90;;;;;;4589217;19;20110;-28
2023/05/24 07:41:43;;;;;;;22.73;20.63;;;16.60;99.90;;;;;;4590051;19;20354;-27
2023/05/24 07:43:17;;;;;;;22.13;20.13;;;16.60;99.90;;;;;;4589640;19;20424;-24
2023/05/24 07:44:49;;;;;;;22.20;20.10;;;16.60;99.90;;;;;;4590131;19;20365;-24
2023/05/24 07:46:21;;;;;;;21.63;19.52;;;16.50;99.90;;;;;;4589519;19;20025;-29
2023/05/24 07:47:52;;;;;;;22.13;20.10;;;16.60;99.90;;;;;;4589488;19;20506;-26
2023/05/24 07:49:25;;;;;;;22.45;20.27;;;16.50;99.90;;;;;;4590072;19;20026;-29
2023/05/24 07:50:57;;;;;;;22.33;20.23;;;16.60;99.90;;;;;;4587061;19;20015;-26
2023/05/24 07:52:28;;;;;;;20.35;18.45;;;16.60;99.90;;;;;;4589000;19;20486;-25
2023/05/24 07:53:59;;;;;;;;;;;16.50;99.90;;;;;;4590606;19;20082;-27
2023/05/24 07:55:31;;;;;;;21.83;19.70;;;16.60;99.90;;;;;;4588634;19;19914;-27
2023/05/24 07:57:07;;;;;;;22.25;20.10;;;16.60;99.90;;;;;;4588077;19;20018;-24
2023/05/24 07:59:05;;;;;;;22.10;20.05;;;16.60;99.90;;;;;;4588936;19;20011;-28
2023/05/24 08:00:38;;;;;;;20.17;18.25;;;16.60;99.90;;;;;;4587422;19;20028;-27
2023/05/24 08:02:12;;;;;;;20.27;18.33;;;16.60;99.90;;;;;;4588202;19;20006;-25
2023/05/24 08:03:47;;;;;;;21.13;19.13;;;16.60;99.90;;;;;;4588016;19;20018;-23
2023/05/24 08:05:21;;;;;;;21.65;19.48;;;16.60;99.90;;;;;;4590483;19;20021;-23
2023/05/24 08:06:53;;;;;;;22.17;19.95;;;16.60;99.90;;;;;;4593779;19;20011;-24
2023/05/24 08:08:24;;;;;;;;;;;16.60;99.90;;;;;;4594554;19;20444;-27
2023/05/24 08:09:56;;;;;;;19.67;17.60;;;16.60;99.90;;;;;;4594629;19;19928;-26
2023/05/24 08:11:27;;;;;;;21.30;19.20;;;16.60;99.90;;;;;;4593682;19;20018;-23
2023/05/24 08:12:59;;;;;;;21.05;19.10;;;16.60;99.90;;;;;;4592803;19;20011;-23
2023/05/24 08:14:30;;;;;;;21.75;19.65;;;16.60;99.90;;;;;;4594001;19;20010;-23
2023/05/24 08:16:02;;;;;;;21.20;19.10;;;16.60;99.90;;;;;;4593829;19;20011;-30
2023/05/24 08:17:38;;;;;;;21.02;19.02;;;16.60;99.90;;;;;;4592309;19;20010;-30
2023/05/24 08:19:09;;;;;;;20.63;18.63;;;16.60;99.90;;;;;;4592598;19;20014;-24
2023/05/24 08:20:41;;;;;;;20.35;18.42;;;16.60;99.90;;;;;;4591274;19;20007;-30
2023/05/24 08:22:15;;;;;;;21.83;19.73;;;16.60;99.90;;;;;;4592283;19;20389;-29
2023/05/24 08:24:01;;;;;;;20.02;18.10;;;16.60;99.90;;;;;;4590282;19;20015;-27
2023/05/24 08:25:32;;;;;;;21.30;19.30;;;16.60;99.90;;;;;;4594577;19;20472;-24
2023/05/24 08:27:04;;;;;;;22.15;20.02;;;16.60;99.90;;;;;;4593548;19;20011;-26
2023/05/24 08:28:35;;;;;;;21.00;18.90;;;16.60;99.90;;;;;;4594068;19;20447;-26
2023/05/24 08:30:12;;;;;;;20.33;18.42;;;16.70;99.90;;;;;;4593350;19;20038;-24
2023/05/24 08:31:44;;;;;;;20.55;18.65;;;16.70;99.90;;;;;;4592594;19;20017;-27
2023/05/24 08:33:16;;;;;;;20.70;18.80;;;16.60;99.90;;;;;;4593483;19;20014;-28
2023/05/24 08:34:49;;;;;;;21.15;19.05;;;16.70;99.90;;;;;;4593365;19;20007;-23
2023/05/24 08:36:23;;;;;;;19.73;17.83;;;16.70;99.90;;;;;;4593495;19;20342;-26
2023/05/24 08:37:55;;;;;;;20.52;18.63;;;16.70;99.90;;;;;;4593638;19;20010;-23
2023/05/24 08:39:26;;;;;;;20.63;18.73;;;16.70;99.90;;;;;;4592824;19;20031;-27
2023/05/24 08:40:57;;;;;;;20.50;18.52;;;16.70;99.90;;;;;;4590944;19;20025;-30
2023/05/24 08:42:29;;;;;;;20.08;18.20;;;16.70;99.90;;;;;;4592296;19;20081;-24
2023/05/24 08:44:01;;;;;;;19.38;17.58;;;16.70;99.90;;;;;;4591863;19;20038;-23
2023/05/24 08:45:33;;;;;;;20.60;18.60;;;16.80;99.90;;;;;;4592770;19;20021;-28
2023/05/24 08:47:04;;;;;;;21.20;19.13;;;16.80;99.90;;;;;;4591813;19;20010;-25
2023/05/24 08:48:45;;;;;;;21.30;19.17;;;16.70;99.90;;;;;;4592402;19;20540;-25
2023/05/24 08:50:17;;;;;;;19.63;17.73;;;16.80;99.90;;;;;;4592071;19;20040;-24
2023/05/24 08:51:48;;;;;;;19.85;17.95;;;16.80;99.90;;;;;;4593129;19;20007;-24
2023/05/24 08:53:22;;;;;;;19.63;17.73;;;16.80;99.90;;;;;;4592241;19;20014;-25
2023/05/24 08:54:54;;;;;;;20.90;18.77;;;16.80;99.90;;;;;;4591857;19;20085;-24
2023/05/24 08:56:38;;;;;;;19.23;17.42;;;16.80;99.90;;;;;;4591569;19;20334;-27
2023/05/24 08:58:44;;;;;;;20.55;18.67;;;16.80;99.90;;;;;;4588839;19;20020;-25
2023/05/24 09:00:16;;;;;;;20.63;18.70;;;16.80;99.90;;;;;;4591241;19;20014;-22
2023/05/24 09:01:49;;;;;;;19.23;17.17;;;16.80;99.90;;;;;;4591133;19;20086;-25
2023/05/24 09:03:20;;;;;;;19.50;17.63;;;16.80;99.90;;;;;;4590450;19;20019;-28
2023/05/24 09:04:52;;;;;;;;;;;16.80;99.90;;;;;;4590267;19;20094;-26
2023/05/24 09:06:24;;;;;;;18.65;16.77;;;16.90;99.90;;;;;;4591604;19;19974;-28
2023/05/24 09:07:55;;;;;;;18.75;17.05;;;16.90;99.90;;;;;;4590217;19;20011;-26
2023/05/24 09:09:28;;;;;;;19.33;17.52;;;16.90;99.90;;;;;;4589486;19;20018;-25
2023/05/24 09:10:59;;;;;;;18.83;16.92;;;16.90;99.90;;;;;;4589283;19;20010;-28
2023/05/24 09:12:31;;;;;;;19.30;17.40;;;16.90;99.90;;;;;;4590719;19;20395;-28
2023/05/24 09:14:03;;;;;;;19.58;17.77;;;17.00;99.90;;;;;;4589895;19;20540;-24
2023/05/24 09:15:34;;;;;;;17.67;16.02;;;17.00;99.90;;;;;;4590087;19;20010;-25
2023/05/24 09:17:05;;;;;;;19.40;17.42;;;17.00;99.90;;;;;;4588684;19;20011;-29
2023/05/24 09:18:38;;;;;;;18.42;16.63;;;17.00;99.90;;;;;;4590565;19;20006;-26
2023/05/24 09:20:11;;;;;;;18.65;16.85;;;17.00;99.90;;;;;;4590211;19;20015;-28
2023/05/24 09:21:43;;;;;;;17.77;15.75;;;17.10;99.90;;;;;;4590565;19;20018;-27
2023/05/24 09:23:15;;;;;;;18.25;16.45;;;17.10;99.90;;;;;;4589856;19;20614;-25
2023/05/24 09:24:47;;;;;;;17.15;15.57;;;17.10;99.90;;;;;;4589313;19;20557;-24
2023/05/24 09:26:18;;;;;;;16.20;14.52;;;17.10;99.90;;;;;;4589456;19;20011;-28
2023/05/24 09:27:50;;;;;;;17.77;16.17;;;17.10;99.90;;;;;;4589729;19;20060;-24
2023/05/24 09:29:23;;;;;;;17.73;15.93;;;17.20;99.90;;;;;;4590516;19;20035;-25
2023/05/24 09:31:02;;;;;;;18.15;16.38;;;17.20;99.90;;;;;;4588568;19;20047;-25
2023/05/24 09:32:34;;;;;;;17.02;15.43;;;17.10;99.90;;;;;;4589601;19;20072;-27
2023/05/24 09:34:09;;;;;;;17.27;15.68;;;17.20;99.90;;;;;;4590246;19;20580;-25
2023/05/24 09:35:42;;;;;;;15.88;14.30;;;17.20;99.90;;;;;;4590633;19;20019;-28
2023/05/24 09:37:17;;;;;;;16.13;14.63;;;17.20;99.90;;;;;;4589500;19;20353;-25
2023/05/24 09:38:54;;;;;;;16.38;14.65;;;17.20;99.90;;;;;;4589447;19;20021;-24
2023/05/24 09:40:27;;;;;;;15.93;14.45;;;17.20;99.90;;;;;;4589403;19;20008;-24
2023/05/24 09:41:59;;;;;;;15.55;14.07;;;17.20;99.90;;;;;;4591320;19;20022;-28
2023/05/24 09:43:34;;;;;;;15.77;14.27;;;17.30;99.90;;;;;;4589623;19;20011;-24
2023/05/24 09:45:09;;;;;;;15.30;13.90;;;17.30;99.90;;;;;;4588663;19;20010;-26
2023/05/24 09:46:41;;;;;;;15.20;13.80;;;17.30;99.90;;;;;;4589436;19;20020;-27
2023/05/24 09:48:17;;;;;;;15.05;13.68;;;17.30;99.90;;;;;;4589928;19;20012;-25
2023/05/24 09:49:48;;;;;;;16.08;14.57;;;17.30;99.90;;;;;;4589650;19;20026;-25
2023/05/24 09:51:20;;;;;;;15.38;13.80;;;17.30;99.90;;;;;;4588808;19;20082;-30
2023/05/24 09:52:53;;;;;;;15.23;13.73;;;17.30;99.90;;;;;;4589507;19;20018;-28
2023/05/24 09:54:26;;;;;;;15.32;13.77;;;17.30;99.90;;;;;;4590046;19;20006;-25
2023/05/24 09:55:58;;;;;;;15.07;13.68;;;17.30;99.90;;;;;;4589271;19;20082;-30
2023/05/24 09:57:31;;;;;;;14.85;13.55;;;17.30;99.90;;;;;;4589115;19;20011;-24
2023/05/24 09:59:08;;;;;;;16.42;14.73;;;17.30;99.90;;;;;;4590981;19;20014;-25
2023/05/24 10:00:40;;;;;;;15.18;13.18;;;17.40;99.90;;;;;;4590794;19;20038;-24
2023/05/24 10:02:12;;;;;;;;;;;17.50;99.90;;;;;;4594214;19;20017;-27
2023/05/24 10:03:53;;;;;;;13.73;12.33;;;17.50;99.90;;;;;;4591375;19;19922;-25
2023/05/24 10:05:25;;;;;;;16.17;14.63;;;17.40;99.90;;;;;;4588855;19;20084;-24
2023/05/24 10:06:57;;;;;;;;;;;17.50;99.90;;;;;;4591953;19;20039;-25
2023/05/24 10:08:28;;;;;;;13.85;12.55;;;17.40;99.90;;;;;;4590709;19;19911;-24
2023/05/24 10:10:00;;;;;;;14.27;12.80;;;17.50;99.90;;;;;;4589886;19;20027;-23
2023/05/24 10:11:36;;;;;;;13.82;12.52;;;17.50;99.90;;;;;;4590015;19;20014;-24
2023/05/24 10:13:07;;;;;;;14.63;13.23;;;17.50;99.90;;;;;;4591201;19;20006;-25
2023/05/24 10:14:39;;;;;;;;;;;17.50;99.90;;;;;;4590773;19;20035;-27
2023/05/24 10:16:10;;;;;;;13.18;11.98;;;17.60;99.90;;;;;;4591004;19;19911;-25
2023/05/24 10:17:42;;;;;;;13.27;12.07;;;17.60;99.90;;;;;;4591619;19;20018;-24
2023/05/24 10:19:14;;;;;;;13.80;12.45;;;17.60;99.90;;;;;;4591708;19;20364;-26
2023/05/24 10:20:46;;;;;;;;;;;17.60;99.90;;;;;;4590774;19;20365;-27
2023/05/24 10:22:18;;;;;;;12.25;11.05;;;17.60;99.90;;;;;;4592788;19;19921;-23
2023/05/24 10:23:53;;;;;;;12.70;11.52;;;17.60;99.90;;;;;;4588165;19;20369;-32
2023/05/24 10:25:27;;;;;;;12.48;11.27;;;17.60;99.90;;;;;;4590370;19;20011;-25
2023/05/24 10:26:59;;;;;;;13.07;11.77;;;17.70;99.90;;;;;;4590484;19;20039;-29
2023/05/24 10:28:31;;;;;;;11.57;10.48;;;17.70;99.90;;;;;;4590746;19;20015;-25
2023/05/24 10:30:09;;;;;;;12.85;11.65;;;17.70;99.90;;;;;;4590274;19;20014;-23
2023/05/24 10:31:41;;;;;;;12.82;11.55;;;17.70;99.90;;;;;;4590794;19;20013;-28
2023/05/24 10:33:12;;;;;;;12.88;11.68;;;17.70;99.90;;;;;;4589890;19;20412;-25
2023/05/24 10:34:44;;;;;;;12.50;11.30;;;17.70;99.90;;;;;;4590817;19;20018;-25
2023/05/24 10:36:16;;;;;;;13.07;11.88;;;17.80;99.90;;;;;;4590099;19;20040;-25
2023/05/24 10:37:48;;;;;;;13.10;11.90;;;17.80;99.90;;;;;;4589811;19;20018;-25
2023/05/24 10:39:24;;;;;;;13.35;12.15;;;17.80;99.90;;;;;;4589362;19;20027;-23
2023/05/24 10:40:56;;;;;;;14.75;13.30;;;17.80;99.90;;;;;;4588827;19;20010;-28
2023/05/24 10:42:30;;;;;;;14.80;13.40;;;17.80;99.90;;;;;;4589573;19;20595;-28
2023/05/24 10:44:02;;;;;;;13.20;11.95;;;17.80;99.90;;;;;;4588695;19;20340;-28
2023/05/24 10:45:36;;;;;;;;;;;17.70;99.90;;;;;;4590058;19;20011;-28
2023/05/24 10:47:08;;;;;;;14.07;12.77;;;17.80;99.90;;;;;;4588936;19;19914;-27
2023/05/24 10:48:41;;;;;;;14.23;12.82;;;17.80;99.90;;;;;;4590361;19;20017;-25
2023/05/24 10:50:16;;;;;;;13.30;12.10;;;17.70;99.90;;;;;;4590869;19;20068;-27
2023/05/24 10:51:47;;;;;;;14.57;13.27;;;17.70;99.90;;;;;;4590037;19;20010;-24
2023/05/24 10:53:22;;;;;;;13.75;12.45;;;17.80;99.90;;;;;;4589497;19;20010;-24
2023/05/24 10:55:10;;;;;;;12.73;11.52;;;17.80;99.90;;;;;;4589049;19;20014;-26
2023/05/24 10:56:47;;;;;;;13.15;11.85;;;17.80;99.90;;;;;;4590676;19;20010;-28
2023/05/24 10:58:22;;;;;;;13.20;11.98;;;17.80;99.90;;;;;;4589969;19;20356;-24
2023/05/24 10:59:53;;;;;;;12.18;10.98;;;17.80;99.90;;;;;;4589361;19;20011;-24
2023/05/24 11:01:32;;;;;;;12.02;10.85;;;17.80;99.90;;;;;;4587481;19;20353;-25
2023/05/24 11:03:07;;;;;;;12.27;11.07;;;17.90;99.90;;;;;;4588398;19;20014;-26
2023/05/24 11:04:42;;;;;;;12.95;11.75;;;17.90;99.90;;;;;;4587472;19;20100;-23
2023/05/24 11:06:13;;;;;;;11.70;10.65;;;17.90;99.90;;;;;;4588151;19;20025;-28
2023/05/24 11:07:47;;;;;;;11.95;10.82;;;17.90;99.90;;;;;;4588053;19;20026;-24
2023/05/24 11:09:21;;;;;;;11.27;10.18;;;18.00;99.90;;;;;;4587938;19;20013;-28
2023/05/24 11:11:10;;;;;;;11.68;10.48;;;18.00;99.90;;;;;;4587751;19;20026;-27
2023/05/24 11:12:43;;;;;;;11.35;10.25;;;18.10;99.90;;;;;;4587754;19;20035;-24
2023/05/24 11:14:18;;;;;;;11.07;9.98;;;18.10;99.90;;;;;;4587634;19;20049;-26
2023/05/24 11:15:51;;;;;;;11.10;10.10;;;18.10;99.90;;;;;;4587222;19;20014;-28
2023/05/24 11:17:22;;;;;;;10.98;9.95;;;18.00;99.90;;;;;;4587738;19;20007;-27
2023/05/24 11:18:56;;;;;;;11.27;10.18;;;18.00;99.90;;;;;;4587062;19;20025;-25
2023/05/24 11:20:43;;;;;;;11.13;10.13;;;18.10;99.90;;;;;;4588033;19;20107;-28
2023/05/24 11:22:14;;;;;;;12.25;10.30;;;18.10;99.90;;;;;;4587773;19;20002;-28
2023/05/24 11:23:46;;;;;;;10.80;9.80;;;18.10;99.90;;;;;;4586875;19;20022;-26
2023/05/24 11:25:18;;;;;;;12.10;10.90;;;18.20;99.90;;;;;;4587434;19;20006;-25
2023/05/24 11:26:53;;;;;;;11.07;9.93;;;18.20;99.90;;;;;;4587921;19;20022;-25
2023/05/24 11:28:24;;;;;;;12.15;11.05;;;18.20;99.90;;;;;;4587736;19;20021;-23
2023/05/24 11:29:56;;;;;;;;;;;18.20;99.90;;;;;;4589058;19;20020;-27
2023/05/24 11:31:28;;;;;;;11.20;10.10;;;18.20;99.90;;;;;;4587494;19;19914;-27
2023/05/24 11:33:01;;;;;;;10.80;9.80;;;18.20;99.90;;;;;;4589036;19;20029;-30
2023/05/24 11:34:33;;;;;;;10.70;9.70;;;18.30;99.90;;;;;;4590564;19;20106;-25
2023/05/24 11:36:06;;;;;;;10.68;9.68;;;18.20;99.90;;;;;;4588739;19;20029;-26
2023/05/24 11:37:38;;;;;;;11.13;10.02;;;18.20;99.90;;;;;;4589867;19;20471;-25
2023/05/24 11:39:13;;;;;;;11.68;10.57;;;18.20;99.90;;;;;;4588164;19;20074;-23
2023/05/24 11:40:45;;;;;;;10.90;9.90;;;18.20;99.90;;;;;;4588919;19;20034;-27
2023/05/24 11:42:22;;;;;;;11.65;10.57;;;18.30;99.90;;;;;;4588534;19;20018;-28
2023/05/24 11:43:55;;;;;;;11.27;10.20;;;18.20;99.90;;;;;;4589238;19;20014;-24
2023/05/24 11:45:27;;;;;;;;;;;18.20;99.90;;;;;;4588565;19;20486;-25
2023/05/24 11:47:04;;;;;;;11.43;10.43;;;18.20;99.90;;;;;;4589127;19;19915;-24
2023/05/24 11:48:39;;;;;;;11.15;10.05;;;18.20;99.90;;;;;;4589897;19;20003;-25
2023/05/24 11:50:14;;;;;;;13.50;12.18;;;18.30;99.90;;;;;;4588310;19;20078;-25
2023/05/24 11:51:45;;;;;;;10.68;9.68;;;18.20;99.90;;;;;;4588653;19;20023;-25
2023/05/24 11:53:19;;;;;;;13.35;10.60;;;18.20;99.90;;;;;;4588564;19;20479;-25
2023/05/24 11:54:51;;;;;;;12.15;10.90;;;18.20;99.90;;;;;;4589421;19;20094;-29
2023/05/24 11:56:26;;;;;;;10.95;9.88;;;18.20;99.90;;;;;;4589475;19;20028;-26
2023/05/24 11:58:00;;;;;;;10.77;9.75;;;18.20;99.90;;;;;;4588765;19;20484;-25
2023/05/24 11:59:34;;;;;;;11.15;10.13;;;18.20;99.90;;;;;;4589859;19;20335;-25
2023/05/24 12:01:05;;;;;;;11.20;10.00;;;18.30;99.90;;;;;;4589862;19;20020;-23
2023/05/24 12:02:38;;;;;;;;;;;18.30;99.90;;;;;;4588961;19;20017;-25
2023/05/24 12:04:10;;;;;;;11.73;10.63;;;18.30;99.90;;;;;;4588717;19;19919;-25
2023/05/24 12:05:41;;;;;;;11.15;10.05;;;18.30;99.90;;;;;;4589812;19;20013;-28
2023/05/24 12:07:14;;;;;;;11.35;10.05;;;18.30;99.90;;;;;;4588031;19;20021;-24
2023/05/24 12:08:48;;;;;;;;;;;18.40;99.90;;;;;;4589066;19;20480;-25
2023/05/24 12:10:24;;;;;;;10.32;8.90;;;18.40;99.90;;;;;;4588370;19;20530;-25
2023/05/24 12:12:01;;;;;;;12.27;11.15;;;18.40;99.90;;;;;;4588528;19;20023;-25
2023/05/24 12:13:33;;;;;;;10.88;9.88;;;18.40;99.90;;;;;;4588005;19;20014;-25
2023/05/24 12:15:08;;;;;;;12.55;10.23;;;18.40;99.90;;;;;;4587898;19;20014;-23
2023/05/24 12:16:44;;;;;;;10.25;9.25;;;18.40;99.90;;;;;;4589235;19;20011;-26
2023/05/24 12:18:22;;;;;;;11.02;10.02;;;18.40;99.90;;;;;;4586291;19;20014;-24